Stations météo

réclame
Mon MeteoGroup
Leuchtturm Alte Weser, Allemagne (10124): Température de l'air & dewpoint: 13.11.2017 18:00:00 - 19.11.2017 18:00:00 (CET)Leuchtturm Alte Weser, Allemagne (10124): Vitesse du vent & gusts: 13.11.2017 18:00:00 - 19.11.2017 18:00:00 (CET)Leuchtturm Alte Weser, Allemagne (10124): Direction du vent: 13.11.2017 18:00:00 - 19.11.2017 18:00:00 (CET)Leuchtturm Alte Weser, Allemagne (10124): reduced air pressure: 13.11.2017 18:00:00 - 19.11.2017 18:00:00 (CET)Leuchtturm Alte Weser, Allemagne (10124): Ensoleillement: 13.11.2017 18:00:00 - 19.11.2017 18:00:00 (CET)
Date & Time tt [°C] td [°C] ff [km/h] ff [knt] fx [km/h] fx [knt] dd ppp [hPa] sd [min]
19.11.2017 18:00:00 6,5 4,9 61 33 97 53 NNW 1010,9 0
19.11.2017 17:00:00 7,7 4,6 43 23 94 51 NNW 1010,1 0
19.11.2017 16:00:00 6,9 4,5 68 37 - - NNW 1009,4 6
19.11.2017 15:00:00 9,5 4,4 65 35 83 45 NW 1008,6 18
19.11.2017 14:00:00 9,3 4,9 61 33 86 47 NW 1008,2 18
19.11.2017 13:00:00 9,4 4,3 68 37 - - NW 1007,9 18
19.11.2017 12:00:00 8,7 4,8 58 31 104 56 NW 1007,7 12
19.11.2017 11:00:00 9,0 3,5 68 37 112 60 NW 1007,2 30
19.11.2017 10:00:00 9,8 3,9 76 41 - - NW 1005,9 6
19.11.2017 09:00:00 9,2 5,0 65 35 104 56 NW 1005,6 0
19.11.2017 08:00:00 9,6 4,1 72 39 101 54 NW 1005,0 0
19.11.2017 07:00:00 7,8 4,7 76 41 - - WNW 1004,9 0
19.11.2017 06:00:00 8,3 3,9 68 37 94 51 NW 1005,3 0
19.11.2017 05:00:00 9,2 2,8 65 35 94 51 WNW 1005,2 0
19.11.2017 04:00:00 9,0 3,3 65 35 - - WNW 1005,4 0
19.11.2017 03:00:00 8,9 2,2 61 33 86 47 WNW 1006,1 0
19.11.2017 02:00:00 8,3 4,4 50 27 83 45 W 1006,6 0
19.11.2017 01:00:00 8,3 4,4 58 31 - - W 1006,8 0
19.11.2017 00:00:00 8,9 3,0 65 35 83 45 W 1007,2 0
18.11.2017 23:00:00 8,4 3,5 61 33 76 41 NW 1008,0 0
18.11.2017 22:00:00 7,6 4,2 58 31 - - W 1008,3 0
18.11.2017 21:00:00 7,7 3,2 61 33 86 47 WNW 1008,8 0
18.11.2017 20:00:00 5,5 3,8 50 27 83 45 NW 1009,5 0
18.11.2017 19:00:00 6,4 3,1 76 41 - - NW 1009,3 0
18.11.2017 18:00:00 8,9 1,5 54 29 76 41 WNW 1009,2 0
18.11.2017 17:00:00 8,3 3,7 47 25 76 41 NW 1009,5 0
18.11.2017 16:00:00 8,7 2,7 54 29 - - WNW 1009,4 12
18.11.2017 15:00:00 8,6 2,4 61 33 79 43 NW 1009,2 12
18.11.2017 14:00:00 8,8 1,4 54 29 72 39 WNW 1009,1 0
18.11.2017 13:00:00 8,5 3,3 58 31 - - W 1008,6 0
18.11.2017 12:00:00 6,1 2,4 76 41 97 53 WNW 1009,6 0
18.11.2017 11:00:00 6,7 4,1 43 23 76 41 NW 1010,1 0
18.11.2017 10:00:00 7,3 6,1 58 31 - - WSW 1009,1 0
18.11.2017 09:00:00 7,4 5,3 68 37 83 45 SW 1009,8 0
18.11.2017 08:00:00 7,4 5,2 61 33 76 41 SW 1010,6 0
18.11.2017 07:00:00 7,1 4,5 61 33 - - SW 1011,7 0
18.11.2017 06:00:00 7,3 4,4 61 33 68 37 SW 1012,7 0
18.11.2017 05:00:00 6,8 4,6 54 29 65 35 SW 1014,0 0
18.11.2017 04:00:00 7,0 4,2 50 27 - - SW 1015,3 0
18.11.2017 03:00:00 7,3 4,9 50 27 65 35 SW 1016,4 0
18.11.2017 02:00:00 7,4 4,4 43 23 65 35 SW 1017,4 0
18.11.2017 01:00:00 7,7 4,5 50 27 - - SW 1018,1 0
18.11.2017 00:00:00 7,4 5,4 43 23 58 31 SW 1019,0 0
17.11.2017 23:00:00 7,5 5,4 47 25 54 29 SW 1019,7 0
17.11.2017 22:00:00 7,3 4,9 36 19 - - SW 1020,5 0
17.11.2017 21:00:00 7,7 5,0 43 23 54 29 SW 1020,9 0
17.11.2017 20:00:00 7,6 5,5 47 25 58 31 WSW 1021,1 0
17.11.2017 19:00:00 7,5 5,3 43 23 - - SW 1021,7 0
17.11.2017 18:00:00 8,0 5,4 32 18 50 27 SW 1022,3 0
17.11.2017 17:00:00 8,4 5,8 40 21 54 29 WSW 1022,8 0
17.11.2017 16:00:00 8,6 4,6 43 23 - - WSW 1022,7 42
17.11.2017 15:00:00 9,5 3,6 36 19 - - WSW 1023,1 42
17.11.2017 14:00:00 9,7 3,2 36 19 47 25 W 1023,8 12
17.11.2017 13:00:00 9,7 3,5 36 19 - - W 1024,2 42
17.11.2017 12:00:00 9,8 2,2 36 19 - - W 1024,5 54
17.11.2017 11:00:00 8,8 4,6 29 16 - - WSW 1024,8 42
17.11.2017 10:00:00 9,5 4,4 25 14 - - WSW 1024,5 18
17.11.2017 09:00:00 9,6 2,6 29 16 - - W 1024,5 18
17.11.2017 08:00:00 9,3 2,6 18 10 - - W 1024,1 0
17.11.2017 07:00:00 9,7 -0,4 32 18 - - WNW 1023,8 0
17.11.2017 06:00:00 9,5 3,5 25 14 - - WNW 1023,5 0
17.11.2017 05:00:00 9,6 1,4 32 18 - - NW 1023,3 0
17.11.2017 04:00:00 9,7 2,3 32 18 - - NW 1022,7 0
17.11.2017 03:00:00 9,9 2,0 36 19 - - NW 1022,3 0
17.11.2017 02:00:00 10,0 1,7 36 19 50 27 NNW 1021,9 0
17.11.2017 01:00:00 10,1 2,6 43 23 - - NNW 1021,4 0
17.11.2017 00:00:00 10,4 4,2 43 23 54 29 NW 1020,8 0
16.11.2017 23:00:00 10,6 4,3 47 25 58 31 NW 1020,3 0
16.11.2017 22:00:00 9,7 7,4 43 23 - - NW 1019,6 0
16.11.2017 21:00:00 9,7 8,5 36 19 65 35 WNW 1018,9 0
16.11.2017 20:00:00 9,9 9,3 40 21 47 25 SW 1017,9 0
16.11.2017 19:00:00 9,5 9,1 36 19 - - SW 1018,2 0
16.11.2017 18:00:00 9,5 9,4 36 19 - - SW 1018,1 0
16.11.2017 17:00:00 9,7 8,9 36 19 - - SW 1018,4 0
16.11.2017 16:00:00 9,6 8,8 32 18 - - SW 1018,6 0
16.11.2017 15:00:00 9,6 9,0 32 18 - - SW 1018,8 0
16.11.2017 14:00:00 9,5 9,5 29 16 - - SW 1019,5 0
16.11.2017 13:00:00 9,5 9,4 36 19 - - SW 1019,8 0
16.11.2017 12:00:00 9,4 9,0 32 18 - - SSW 1020,4 0
16.11.2017 11:00:00 9,1 9,1 32 18 - - SSW 1020,7 0
16.11.2017 10:00:00 9,0 8,9 32 18 - - SSW 1021,0 0
16.11.2017 09:00:00 8,8 8,8 32 18 - - SSW 1020,9 0
16.11.2017 08:00:00 8,6 8,6 29 16 - - S 1020,9 0
16.11.2017 07:00:00 8,5 8,5 29 16 - - S 1021,0 0
16.11.2017 06:00:00 8,5 8,5 25 14 - - S 1021,2 0
16.11.2017 05:00:00 8,5 8,5 25 14 - - S 1021,6 0
16.11.2017 04:00:00 8,5 8,5 25 14 - - S 1022,2 0
16.11.2017 03:00:00 8,5 8,5 22 12 - - S 1022,6 0
16.11.2017 02:00:00 8,5 8,5 22 12 - - S 1022,8 0
16.11.2017 01:00:00 8,9 8,9 22 12 - - SSW 1023,4 0
16.11.2017 00:00:00 9,2 9,2 18 10 - - SSW 1023,7 0
15.11.2017 23:00:00 9,4 9,4 22 12 - - SSW 1024,0 0
15.11.2017 22:00:00 9,5 9,5 14 8 - - SSE 1024,2 0
15.11.2017 21:00:00 9,7 9,0 11 6 - - SE 1024,4 0
15.11.2017 20:00:00 10,2 8,1 7 4 - - S 1024,4 0
15.11.2017 19:00:00 10,1 8,0 11 6 - - WSW 1024,4 0
15.11.2017 18:00:00 9,8 9,0 7 4 - - WSW 1024,2 0
15.11.2017 17:00:00 10,2 9,3 11 6 - - W 1024,0 0
15.11.2017 16:00:00 10,0 9,0 14 8 - - W 1024,0 0
15.11.2017 15:00:00 9,8 9,5 14 8 - - W 1023,9 12
15.11.2017 14:00:00 10,3 9,5 18 10 - - W 1023,5 12
15.11.2017 13:00:00 10,2 9,4 22 12 - - W 1023,4 0
15.11.2017 12:00:00 10,4 9,1 22 12 - - W 1023,4 0
15.11.2017 11:00:00 10,5 9,5 22 12 - - W 1023,1 0
15.11.2017 10:00:00 10,2 10,2 29 16 - - W 1022,4 0
15.11.2017 09:00:00 10,0 10,0 36 19 50 27 WSW 1021,6 0
15.11.2017 08:00:00 10,1 10,1 32 18 - - WSW 1021,3 0
15.11.2017 07:00:00 9,9 9,9 29 16 - - WSW 1021,0 0
15.11.2017 06:00:00 9,7 9,7 40 21 47 25 WSW 1020,4 0
15.11.2017 05:00:00 9,6 9,6 29 16 - - WSW 1020,5 0
15.11.2017 04:00:00 9,2 9,1 32 18 - - SW 1020,3 0
15.11.2017 03:00:00 8,9 8,9 32 18 - - SSW 1020,6 0
15.11.2017 02:00:00 8,7 8,7 25 14 - - SW 1020,9 0
15.11.2017 01:00:00 8,9 8,9 22 12 - - SW 1021,1 0
15.11.2017 00:00:00 8,6 8,6 25 14 - - SW 1021,0 0
14.11.2017 23:00:00 8,1 8,1 29 16 - - SW 1020,8 0
14.11.2017 22:00:00 8,2 8,2 29 16 - - SW 1020,7 0
14.11.2017 21:00:00 8,9 8,9 25 14 - - SW 1020,4 0
14.11.2017 20:00:00 8,7 8,7 32 18 - - WSW 1020,1 0
14.11.2017 19:00:00 8,7 8,7 25 14 - - SW 1019,5 0
14.11.2017 18:00:00 9,3 8,8 25 14 - - WSW 1019,1 0
14.11.2017 17:00:00 9,0 8,9 32 18 - - WSW 1018,5 0
14.11.2017 16:00:00 9,2 9,2 36 19 - - WSW 1017,7 0
14.11.2017 15:00:00 8,5 8,5 50 27 61 33 WSW 1016,8 0
14.11.2017 14:00:00 8,0 7,9 50 27 68 37 SW 1016,7 0
14.11.2017 13:00:00 8,0 6,9 58 31 - - SW 1016,0 12
14.11.2017 12:00:00 8,0 5,5 58 31 68 37 SW 1016,2 0
14.11.2017 11:00:00 7,4 4,5 50 27 61 33 SW 1016,6 0
14.11.2017 10:00:00 7,1 4,7 43 23 - - SW 1017,0 0
14.11.2017 09:00:00 7,1 4,6 47 25 54 29 SW 1017,0 0
14.11.2017 08:00:00 6,8 4,6 43 23 50 27 SW 1017,3 0
14.11.2017 07:00:00 6,9 4,5 40 21 - - SW 1017,6 0
14.11.2017 06:00:00 7,0 3,9 43 23 54 29 WSW 1017,5 0
14.11.2017 05:00:00 6,4 4,2 29 16 - - SW 1018,2 0
14.11.2017 04:00:00 7,1 4,6 22 12 - - WSW 1018,7 0
14.11.2017 03:00:00 6,9 4,1 25 14 - - SW 1019,0 0
14.11.2017 02:00:00 7,1 4,2 29 16 - - SW 1019,1 0
14.11.2017 01:00:00 7,9 4,0 18 10 - - SW 1019,1 0
14.11.2017 00:00:00 8,2 3,3 14 8 - - WNW 1019,3 0
13.11.2017 23:00:00 8,3 2,4 18 10 - - NNW 1019,4 0
13.11.2017 22:00:00 8,0 3,8 11 6 - - NNW 1019,2 0
13.11.2017 21:00:00 7,6 3,7 14 8 - - N 1019,1 0
13.11.2017 20:00:00 8,0 4,1 7 4 - - WNW 1018,7 0
13.11.2017 19:00:00 8,1 3,7 11 6 - - N 1018,4 0
13.11.2017 18:00:00 8,0 2,6 14 8 - - N 1017,8 0

tt = Température de l'air
td = dewpoint
ff = Vitesse du vent
fx = gusts
dd = Direction du vent
ppp = reduced air pressure
sd = Ensoleillement

stations d'obs. à proximité